createdAt,value
2019-04-03T00:02:04.410Z,10.40
2019-04-03T00:04:34.335Z,10.30
2019-04-03T00:07:05.591Z,10.30
2019-04-03T00:09:35.831Z,10.30
2019-04-03T00:12:06.096Z,10.30
2019-04-03T00:14:35.663Z,10.30
2019-04-03T00:17:05.969Z,10.20
2019-04-03T00:19:34.687Z,10.20
2019-04-03T00:22:03.528Z,10.00
2019-04-03T00:24:33.913Z,10.10
2019-04-03T00:27:02.532Z,10.00
2019-04-03T00:29:31.004Z,10.10
2019-04-03T00:31:59.427Z,10.10
2019-04-03T00:34:27.952Z,10.20
2019-04-03T00:36:56.425Z,10.10
2019-04-03T00:39:24.917Z,10.00
2019-04-03T00:41:54.700Z,10.00
2019-04-03T00:44:24.279Z,10.00
2019-04-03T00:46:53.866Z,9.90
2019-04-03T00:49:24.421Z,9.80
2019-04-03T00:51:57.099Z,9.90
2019-04-03T00:54:26.468Z,10.00
2019-04-03T00:56:56.530Z,10.00
2019-04-03T00:59:26.393Z,9.90
2019-04-03T01:01:57.627Z,9.90
2019-04-03T01:04:28.318Z,10.00
2019-04-03T01:06:58.528Z,9.90
2019-04-03T01:09:29.041Z,9.90
2019-04-03T01:11:58.790Z,9.90
2019-04-03T01:14:29.806Z,9.80
2019-04-03T01:16:59.837Z,9.70
2019-04-03T01:19:28.352Z,9.70
2019-04-03T01:21:58.649Z,9.80
2019-04-03T01:24:28.107Z,9.80
2019-04-03T01:26:58.571Z,9.70
2019-04-03T01:29:27.250Z,9.70
2019-04-03T01:31:56.512Z,9.60
2019-04-03T01:34:25.009Z,9.50
2019-04-03T01:36:53.802Z,9.60
2019-04-03T01:39:22.451Z,9.60
2019-04-03T01:41:51.513Z,9.60
2019-04-03T01:44:20.538Z,9.60
2019-04-03T01:46:49.056Z,9.60
2019-04-03T01:49:17.723Z,9.50
2019-04-03T01:51:46.166Z,9.60
2019-04-03T01:54:14.990Z,9.70
2019-04-03T01:56:43.641Z,9.60
2019-04-03T01:59:12.032Z,9.60
2019-04-03T02:01:42.314Z,9.50
2019-04-03T02:04:13.009Z,9.60
2019-04-03T02:06:43.121Z,9.60
2019-04-03T02:09:11.818Z,9.60
2019-04-03T02:11:41.326Z,9.60
2019-04-03T02:14:10.114Z,9.50
2019-04-03T02:16:38.790Z,9.50
2019-04-03T02:19:07.508Z,9.50
2019-04-03T02:21:36.371Z,9.60
2019-04-03T02:24:04.766Z,9.60
2019-04-03T02:26:34.378Z,9.60
2019-04-03T02:29:06.664Z,9.40
2019-04-03T02:31:36.595Z,9.50
2019-04-03T02:34:05.807Z,9.40
2019-04-03T02:36:34.374Z,9.30
2019-04-03T02:39:04.154Z,9.30
2019-04-03T02:41:35.995Z,9.30
2019-04-03T02:44:04.106Z,9.30
2019-04-03T02:46:32.646Z,9.30
2019-04-03T02:49:04.808Z,9.30
2019-04-03T02:51:33.927Z,9.30
2019-04-03T02:54:03.253Z,9.20
2019-04-03T02:56:31.946Z,9.20
2019-04-03T02:59:00.674Z,9.20
2019-04-03T03:01:29.539Z,9.30
2019-04-03T03:03:58.110Z,9.10
2019-04-03T03:06:26.873Z,9.20
2019-04-03T03:08:55.339Z,9.30
2019-04-03T03:11:24.768Z,9.20
2019-04-03T03:13:54.410Z,9.20
2019-04-03T03:16:24.360Z,9.20
2019-04-03T03:18:53.270Z,9.10
2019-04-03T03:21:21.843Z,9.00
2019-04-03T03:23:50.811Z,8.90
2019-04-03T03:26:20.004Z,9.00
2019-04-03T03:28:49.000Z,9.10
2019-04-03T03:31:18.790Z,9.10
2019-04-03T03:33:48.080Z,9.20
2019-04-03T03:36:21.784Z,9.10
2019-04-03T03:38:48.104Z,9.10
2019-04-03T03:41:19.382Z,8.90
2019-04-03T03:43:47.884Z,9.00
2019-04-03T03:46:18.071Z,8.90
2019-04-03T03:48:46.949Z,8.90
2019-04-03T03:51:18.686Z,8.90
2019-04-03T03:53:47.662Z,8.80
2019-04-03T03:56:18.408Z,8.80
2019-04-03T03:58:47.911Z,8.70
2019-04-03T04:01:18.828Z,8.60
2019-04-03T04:03:47.839Z,8.60
2019-04-03T04:06:16.996Z,8.60
2019-04-03T04:08:45.860Z,8.60
2019-04-03T04:11:14.405Z,8.70
2019-04-03T04:13:47.573Z,8.50
2019-04-03T04:16:14.390Z,8.50
2019-04-03T04:18:43.034Z,8.60
2019-04-03T04:21:11.874Z,8.60
2019-04-03T04:23:41.417Z,8.60
2019-04-03T04:26:10.314Z,8.70
2019-04-03T04:28:40.566Z,8.80
2019-04-03T04:31:09.290Z,8.80
2019-04-03T04:33:37.703Z,8.70
2019-04-03T04:36:07.015Z,8.80
2019-04-03T04:38:35.669Z,8.90
2019-04-03T04:41:04.367Z,8.80
2019-04-03T04:43:34.567Z,8.60
2019-04-03T04:46:03.197Z,8.70
2019-04-03T04:48:33.228Z,8.70
2019-04-03T04:51:01.875Z,8.70
2019-04-03T04:53:30.770Z,8.70
2019-04-03T04:55:59.332Z,8.80
2019-04-03T04:58:27.837Z,8.80
2019-04-03T05:00:56.678Z,8.70
2019-04-03T05:03:26.965Z,8.60
2019-04-03T05:05:58.255Z,8.70
2019-04-03T05:08:27.451Z,8.90
2019-04-03T05:10:56.386Z,8.90
2019-04-03T05:13:24.856Z,9.00
2019-04-03T05:15:54.159Z,9.00
2019-04-03T05:18:23.083Z,8.90
2019-04-03T05:20:51.778Z,9.00
2019-04-03T05:23:20.289Z,9.00
2019-04-03T05:25:48.674Z,9.10
2019-04-03T05:28:17.083Z,9.20
2019-04-03T05:30:46.058Z,9.20
2019-04-03T05:33:14.690Z,9.20
2019-04-03T05:35:46.481Z,9.20
2019-04-03T05:38:15.595Z,9.10
2019-04-03T05:40:44.394Z,9.10
2019-04-03T05:43:14.581Z,9.20
2019-04-03T05:45:44.767Z,9.20
2019-04-03T05:48:16.953Z,9.30
2019-04-03T05:50:44.088Z,9.30
2019-04-03T05:53:13.432Z,9.50
2019-04-03T05:55:41.864Z,9.50
2019-04-03T05:58:10.250Z,9.50
2019-04-03T06:00:38.822Z,9.60
2019-04-03T06:03:07.842Z,9.70
2019-04-03T06:05:36.287Z,9.80
2019-04-03T06:08:04.868Z,9.90
2019-04-03T06:10:36.615Z,9.70
2019-04-03T06:13:05.822Z,9.50
2019-04-03T06:15:34.280Z,9.40
2019-04-03T06:18:02.664Z,9.40
2019-04-03T06:20:31.775Z,9.40
2019-04-03T06:23:00.435Z,9.50
2019-04-03T06:25:30.484Z,9.60
2019-04-03T06:27:59.207Z,9.80
2019-04-03T06:30:27.713Z,10.00
2019-04-03T06:32:56.103Z,10.10
2019-04-03T06:35:24.745Z,10.20
2019-04-03T06:37:53.612Z,10.20
2019-04-03T06:40:22.571Z,10.20
2019-04-03T06:42:52.961Z,10.30
2019-04-03T06:45:21.683Z,10.30
2019-04-03T06:47:50.157Z,10.40
2019-04-03T06:50:18.776Z,10.50
2019-04-03T06:52:47.362Z,10.60
2019-04-03T06:55:15.949Z,10.70
2019-04-03T06:57:45.227Z,10.70
2019-04-03T07:00:13.733Z,10.70
2019-04-03T07:02:43.115Z,10.90
2019-04-03T07:05:11.920Z,11.00
2019-04-03T07:07:40.601Z,11.00
2019-04-03T07:10:10.234Z,11.10
2019-04-03T07:12:38.865Z,11.20
2019-04-03T07:15:07.797Z,11.20
2019-04-03T07:17:36.363Z,11.30
2019-04-03T07:20:13.655Z,11.30
2019-04-03T07:22:35.460Z,11.40
2019-04-03T07:25:04.943Z,11.40
2019-04-03T07:27:36.365Z,11.50
2019-04-03T07:30:05.422Z,11.60
2019-04-03T07:32:35.728Z,11.70
2019-04-03T07:35:08.908Z,11.70
2019-04-03T07:37:35.087Z,11.80
2019-04-03T07:40:06.078Z,11.90
2019-04-03T07:42:34.753Z,12.00
2019-04-03T07:45:03.794Z,12.00
2019-04-03T07:47:34.427Z,12.00
2019-04-03T07:50:02.918Z,12.10
2019-04-03T07:52:31.582Z,12.20
2019-04-03T07:55:02.213Z,12.30
2019-04-03T07:57:30.712Z,12.40
2019-04-03T07:59:59.112Z,12.40
2019-04-03T08:02:27.541Z,12.40
2019-04-03T08:04:59.442Z,12.40
2019-04-03T08:07:26.510Z,12.50
2019-04-03T08:09:57.013Z,12.60
2019-04-03T08:12:25.582Z,12.60
2019-04-03T08:14:54.042Z,12.70
2019-04-03T08:17:22.460Z,12.70
2019-04-03T08:19:53.727Z,12.80
2019-04-03T08:22:22.387Z,12.80
2019-04-03T08:24:53.613Z,12.90
2019-04-03T08:27:24.569Z,13.00
2019-04-03T08:29:53.364Z,13.10
2019-04-03T08:32:22.000Z,13.20
2019-04-03T08:34:50.605Z,13.20
2019-04-03T08:37:29.689Z,13.30
2019-04-03T08:39:50.110Z,13.40
2019-04-03T08:42:18.766Z,13.50
2019-04-03T08:44:47.145Z,13.50
2019-04-03T08:47:15.540Z,13.50
2019-04-03T08:49:44.316Z,13.50
2019-04-03T08:52:14.834Z,13.70
2019-04-03T08:54:46.362Z,13.80
2019-04-03T08:57:19.786Z,13.80
2019-04-03T08:59:48.343Z,13.80
2019-04-03T09:02:17.140Z,13.90
2019-04-03T09:04:48.127Z,14.00
2019-04-03T09:07:16.974Z,14.00
2019-04-03T09:09:46.575Z,14.20
2019-04-03T09:12:15.007Z,14.20
2019-04-03T09:14:43.516Z,14.30
2019-04-03T09:17:11.896Z,14.40
2019-04-03T09:19:41.695Z,14.50
2019-04-03T09:22:10.942Z,14.70
2019-04-03T09:24:39.732Z,14.70
2019-04-03T09:27:09.797Z,14.70
2019-04-03T09:29:39.806Z,14.90
2019-04-03T09:32:08.447Z,15.00
2019-04-03T09:34:37.046Z,15.00
2019-04-03T09:37:07.053Z,15.10
2019-04-03T09:39:37.417Z,15.10
2019-04-03T09:42:06.614Z,15.20
2019-04-03T09:44:35.338Z,15.20
2019-04-03T09:47:05.682Z,15.20
2019-04-03T09:49:34.167Z,15.30
2019-04-03T09:52:02.908Z,15.40
2019-04-03T09:54:31.822Z,15.40
2019-04-03T09:57:04.615Z,15.40
2019-04-03T09:59:30.752Z,15.40
2019-04-03T10:01:59.333Z,15.40
2019-04-03T10:04:27.738Z,15.40
2019-04-03T10:06:56.276Z,15.50
2019-04-03T10:09:24.705Z,15.60
2019-04-03T10:11:53.313Z,15.80
2019-04-03T10:14:21.811Z,15.90
2019-04-03T10:16:50.219Z,16.00
2019-04-03T10:19:19.068Z,16.10
2019-04-03T10:21:47.631Z,16.20
2019-04-03T10:24:16.451Z,16.20
2019-04-03T10:26:44.857Z,16.30
2019-04-03T10:29:13.447Z,16.30
2019-04-03T10:31:43.293Z,16.50
2019-04-03T10:34:13.734Z,16.70
2019-04-03T10:36:43.520Z,16.90
2019-04-03T10:39:12.699Z,17.00
2019-04-03T10:41:41.660Z,17.20
2019-04-03T10:44:10.352Z,17.30
2019-04-03T10:46:38.840Z,17.30
2019-04-03T10:49:08.509Z,17.40
2019-04-03T10:51:37.410Z,17.50
2019-04-03T10:54:07.184Z,17.60
2019-04-03T10:56:35.591Z,17.60
2019-04-03T10:59:12.074Z,17.80
2019-04-03T11:01:36.943Z,17.90
2019-04-03T11:04:06.712Z,18.10
2019-04-03T11:06:36.750Z,18.00
2019-04-03T11:09:09.057Z,17.90
2019-04-03T11:11:37.760Z,18.00
2019-04-03T11:14:07.786Z,18.10
2019-04-03T11:16:38.923Z,18.00
2019-04-03T11:19:08.316Z,18.00
2019-04-03T11:21:36.986Z,18.10
2019-04-03T11:24:06.695Z,18.20
2019-04-03T11:26:36.064Z,18.10
2019-04-03T11:29:04.997Z,18.30
2019-04-03T11:31:40.682Z,18.50
2019-04-03T11:34:05.084Z,18.60
2019-04-03T11:36:33.829Z,18.80
2019-04-03T11:39:12.812Z,19.10
2019-04-03T11:41:35.636Z,19.10
2019-04-03T11:44:04.223Z,19.30
2019-04-03T11:46:33.221Z,19.60
2019-04-03T11:49:02.506Z,19.70
2019-04-03T11:51:33.651Z,19.80
2019-04-03T11:54:01.309Z,19.90
2019-04-03T11:56:30.716Z,20.10
2019-04-03T11:58:59.912Z,20.40
2019-04-03T12:01:28.882Z,20.80
2019-04-03T12:03:57.638Z,20.90
2019-04-03T12:06:26.623Z,21.20
2019-04-03T12:08:55.008Z,21.40
2019-04-03T12:11:24.048Z,21.30
2019-04-03T12:13:52.959Z,21.40
2019-04-03T12:16:24.787Z,21.50
2019-04-03T12:18:53.451Z,21.70
2019-04-03T12:21:22.298Z,22.20
2019-04-03T12:23:51.921Z,22.30
2019-04-03T12:26:22.340Z,22.50
2019-04-03T12:28:51.063Z,22.90
2019-04-03T12:31:19.816Z,22.90
2019-04-03T12:33:56.825Z,23.00
2019-04-03T12:36:19.156Z,23.20
2019-04-03T12:38:47.755Z,23.40
2019-04-03T12:41:16.673Z,23.40
2019-04-03T12:43:49.041Z,23.60
2019-04-03T12:46:18.845Z,23.70
2019-04-03T12:48:50.193Z,23.70
2019-04-03T12:51:20.217Z,23.80
2019-04-03T12:53:49.177Z,23.40
2019-04-03T12:56:18.029Z,23.10
2019-04-03T12:58:46.546Z,23.10
2019-04-03T13:01:15.346Z,23.20
2019-04-03T13:03:45.518Z,22.90
2019-04-03T13:06:14.813Z,22.70
2019-04-03T13:08:43.393Z,22.60
2019-04-03T13:11:13.192Z,22.20
2019-04-03T13:13:41.840Z,22.10
2019-04-03T13:16:11.099Z,21.70
2019-04-03T13:18:40.114Z,21.20
2019-04-03T13:21:09.368Z,21.20
2019-04-03T13:23:38.777Z,21.50
2019-04-03T13:26:07.501Z,21.40
2019-04-03T13:28:38.465Z,21.60
2019-04-03T13:31:08.737Z,21.60
2019-04-03T13:33:39.015Z,21.50
2019-04-03T13:36:07.831Z,21.60
2019-04-03T13:38:36.929Z,21.80
2019-04-03T13:41:05.789Z,21.90
2019-04-03T13:43:34.723Z,21.80
2019-04-03T13:46:04.609Z,22.10
2019-04-03T13:48:33.739Z,22.30
2019-04-03T13:51:02.174Z,22.30
2019-04-03T13:53:30.875Z,22.40
2019-04-03T13:56:00.047Z,22.60
2019-04-03T13:58:30.588Z,22.60
2019-04-03T14:01:03.002Z,22.60
2019-04-03T14:03:31.991Z,22.70
2019-04-03T14:06:02.248Z,22.70
2019-04-03T14:08:32.239Z,22.70
2019-04-03T14:11:00.885Z,22.60
2019-04-03T14:13:29.781Z,22.50
2019-04-03T14:15:58.329Z,22.30
2019-04-03T14:18:27.228Z,22.20
2019-04-03T14:20:56.537Z,22.10
2019-04-03T14:23:25.913Z,22.00
2019-04-03T14:26:04.685Z,21.80
2019-04-03T14:28:27.047Z,21.70
2019-04-03T14:30:55.575Z,21.10
2019-04-03T14:33:26.033Z,21.10
2019-04-03T14:35:55.636Z,20.90
2019-04-03T14:38:27.657Z,20.60
2019-04-03T14:40:56.136Z,20.40
2019-04-03T14:43:24.623Z,20.20
2019-04-03T14:45:54.164Z,19.90
2019-04-03T14:48:24.106Z,19.30
2019-04-03T14:50:53.566Z,19.00
2019-04-03T14:53:22.523Z,18.70
2019-04-03T14:55:51.401Z,18.60
2019-04-03T14:58:20.023Z,18.30
2019-04-03T15:00:49.594Z,18.10
2019-04-03T15:03:19.172Z,17.70
2019-04-03T15:05:48.058Z,17.20
2019-04-03T15:08:17.599Z,17.00
2019-04-03T15:10:52.562Z,17.10
2019-04-03T15:13:21.056Z,17.00
2019-04-03T15:15:52.639Z,16.70
2019-04-03T15:18:22.274Z,16.40
2019-04-03T15:20:51.396Z,16.30
2019-04-03T15:23:20.004Z,16.30
2019-04-03T15:25:51.795Z,16.40
2019-04-03T15:28:19.607Z,16.40
2019-04-03T15:30:48.821Z,16.50
2019-04-03T15:33:17.312Z,16.60
2019-04-03T15:35:45.955Z,16.70
2019-04-03T15:38:16.028Z,16.80
2019-04-03T15:40:45.555Z,16.90
2019-04-03T15:43:16.237Z,16.70
2019-04-03T15:45:45.546Z,16.60
2019-04-03T15:48:14.057Z,16.60
2019-04-03T15:50:43.147Z,16.60
2019-04-03T15:53:13.708Z,16.70
2019-04-03T15:55:42.500Z,16.80
2019-04-03T15:58:11.661Z,16.60
2019-04-03T16:00:42.718Z,16.60
2019-04-03T16:03:10.786Z,16.70
2019-04-03T16:05:39.619Z,16.70
2019-04-03T16:08:09.800Z,16.70
2019-04-03T16:10:38.684Z,16.70
2019-04-03T16:13:07.276Z,16.70
2019-04-03T16:15:35.684Z,16.70
2019-04-03T16:18:07.099Z,16.70
2019-04-03T16:20:35.537Z,16.60
2019-04-03T16:23:05.112Z,16.50
2019-04-03T16:25:33.656Z,16.50
2019-04-03T16:28:02.671Z,16.50
2019-04-03T16:30:32.910Z,16.40
2019-04-03T16:33:03.456Z,16.40
2019-04-03T16:35:32.423Z,16.30
2019-04-03T16:38:01.335Z,16.30
2019-04-03T16:40:32.352Z,16.30
2019-04-03T16:43:01.487Z,16.10
2019-04-03T16:45:30.030Z,16.10
2019-04-03T16:47:58.635Z,16.10
2019-04-03T16:50:27.946Z,16.10
2019-04-03T16:52:57.217Z,16.10
2019-04-03T16:55:26.207Z,16.20
2019-04-03T16:57:55.621Z,16.10
2019-04-03T17:00:25.003Z,16.10
2019-04-03T17:02:55.658Z,16.20
2019-04-03T17:05:24.487Z,16.20
2019-04-03T17:07:54.317Z,16.10
2019-04-03T17:10:23.609Z,15.90
2019-04-03T17:12:54.609Z,15.90
2019-04-03T17:15:23.607Z,15.90
2019-04-03T17:17:52.739Z,15.80
2019-04-03T17:20:22.624Z,15.80
2019-04-03T17:22:52.445Z,15.80
2019-04-03T17:25:22.237Z,15.80
2019-04-03T17:27:56.516Z,15.80
2019-04-03T17:30:21.366Z,15.70
2019-04-03T17:32:50.579Z,15.60
2019-04-03T17:35:19.279Z,15.70
2019-04-03T17:37:48.294Z,15.60
2019-04-03T17:40:17.299Z,15.60
2019-04-03T17:42:47.755Z,15.70
2019-04-03T17:45:17.939Z,15.60
2019-04-03T17:47:47.802Z,15.60
2019-04-03T17:50:17.334Z,15.60
2019-04-03T17:52:45.946Z,15.60
2019-04-03T17:55:21.097Z,15.60
2019-04-03T17:57:49.906Z,15.50
2019-04-03T18:00:21.000Z,15.50
2019-04-03T18:02:50.200Z,15.50
2019-04-03T18:05:18.989Z,15.50
2019-04-03T18:07:48.128Z,15.40
2019-04-03T18:10:16.992Z,15.20
2019-04-03T18:12:47.300Z,15.10
2019-04-03T18:15:16.535Z,15.00
2019-04-03T18:17:46.905Z,15.00
2019-04-03T18:20:15.701Z,15.00
2019-04-03T18:22:44.386Z,14.70
2019-04-03T18:25:22.052Z,14.50
2019-04-03T18:27:50.519Z,14.60
2019-04-03T18:30:19.661Z,14.40
2019-04-03T18:32:48.233Z,14.30
2019-04-03T18:35:16.776Z,14.40
2019-04-03T18:37:45.609Z,14.50
2019-04-03T18:40:15.334Z,14.50
2019-04-03T18:42:44.105Z,14.40
2019-04-03T18:45:24.468Z,14.40
2019-04-03T18:47:46.446Z,14.40
2019-04-03T18:50:15.805Z,14.30
2019-04-03T18:52:44.829Z,14.30
2019-04-03T18:55:23.152Z,14.20
2019-04-03T18:57:53.139Z,14.20
2019-04-03T19:00:22.228Z,14.10
2019-04-03T19:02:50.855Z,14.10
2019-04-03T19:05:19.530Z,14.10
2019-04-03T19:07:48.243Z,14.00
2019-04-03T19:10:18.399Z,13.80
2019-04-03T19:12:47.646Z,13.80
2019-04-03T19:15:16.567Z,13.80
2019-04-03T19:17:45.397Z,13.70
2019-04-03T19:20:14.892Z,13.70
2019-04-03T19:22:43.377Z,13.60
2019-04-03T19:25:12.768Z,13.50
2019-04-03T19:27:41.648Z,13.50
2019-04-03T19:30:11.758Z,13.30
2019-04-03T19:32:42.784Z,13.30
2019-04-03T19:35:11.162Z,13.30
2019-04-03T19:37:39.701Z,13.20
2019-04-03T19:40:09.653Z,13.10
2019-04-03T19:42:40.111Z,13.10
2019-04-03T19:45:08.762Z,12.90
2019-04-03T19:47:37.731Z,12.90
2019-04-03T19:50:07.709Z,12.90
2019-04-03T19:52:39.479Z,12.90
2019-04-03T19:55:12.618Z,12.90
2019-04-03T19:57:41.106Z,13.00
2019-04-03T20:00:10.484Z,12.90
2019-04-03T20:02:42.770Z,12.90
2019-04-03T20:05:10.611Z,12.90
2019-04-03T20:07:39.514Z,12.80
2019-04-03T20:10:09.541Z,12.70
2019-04-03T20:12:38.415Z,12.80
2019-04-03T20:15:10.739Z,12.70
2019-04-03T20:17:39.320Z,12.70
2019-04-03T20:20:08.214Z,12.70
2019-04-03T20:22:38.217Z,12.70
2019-04-03T20:25:07.848Z,12.60
2019-04-03T20:27:36.602Z,12.60
2019-04-03T20:30:06.917Z,12.50
2019-04-03T20:32:39.955Z,12.50
2019-04-03T20:35:09.593Z,12.40
2019-04-03T20:37:39.920Z,12.40
2019-04-03T20:40:08.894Z,12.40
2019-04-03T20:42:40.626Z,12.30
2019-04-03T20:45:08.455Z,12.30
2019-04-03T20:47:37.105Z,12.40
2019-04-03T20:50:07.692Z,12.30
2019-04-03T20:52:36.691Z,12.30
2019-04-03T20:55:05.855Z,12.30
2019-04-03T20:57:34.790Z,12.30
2019-04-03T21:00:05.228Z,12.30
2019-04-03T21:02:35.121Z,12.20
2019-04-03T21:05:04.160Z,12.20
2019-04-03T21:07:32.639Z,12.10
2019-04-03T21:10:01.841Z,12.00
2019-04-03T21:12:30.522Z,12.00
2019-04-03T21:15:08.420Z,12.00
2019-04-03T21:17:29.625Z,12.10
2019-04-03T21:19:58.280Z,12.10
2019-04-03T21:22:29.464Z,12.10
2019-04-03T21:24:57.938Z,12.10
2019-04-03T21:27:26.654Z,12.20
2019-04-03T21:29:58.087Z,12.10
2019-04-03T21:32:26.882Z,12.10
2019-04-03T21:34:56.900Z,12.10
2019-04-03T21:37:25.889Z,12.00
2019-04-03T21:39:54.523Z,12.00
2019-04-03T21:42:23.005Z,11.80
2019-04-03T21:44:51.671Z,11.80
2019-04-03T21:47:21.067Z,11.80
2019-04-03T21:49:49.792Z,11.80
2019-04-03T21:52:20.926Z,11.70
2019-04-03T21:54:50.014Z,11.70
2019-04-03T21:57:18.599Z,11.60
2019-04-03T21:59:46.998Z,11.60
2019-04-03T22:02:16.241Z,11.50
2019-04-03T22:04:45.279Z,11.50
2019-04-03T22:07:14.107Z,11.40
2019-04-03T22:09:43.545Z,11.40
2019-04-03T22:12:12.887Z,11.40
2019-04-03T22:14:42.874Z,11.30
2019-04-03T22:17:12.149Z,11.30
2019-04-03T22:19:40.807Z,11.40
2019-04-03T22:22:09.507Z,11.30
2019-04-03T22:24:38.419Z,11.30
2019-04-03T22:27:07.088Z,11.30
2019-04-03T22:29:35.508Z,11.20
2019-04-03T22:32:04.266Z,11.10
2019-04-03T22:34:32.943Z,11.10
2019-04-03T22:37:03.862Z,11.10
2019-04-03T22:39:31.817Z,11.10
2019-04-03T22:42:00.262Z,11.20
2019-04-03T22:44:28.763Z,11.20
2019-04-03T22:46:57.506Z,11.20
2019-04-03T22:49:26.119Z,11.20
2019-04-03T22:51:54.605Z,11.20
2019-04-03T22:54:23.244Z,11.20
2019-04-03T22:56:51.919Z,11.10
2019-04-03T22:59:23.543Z,11.10
2019-04-03T23:01:50.921Z,11.00
2019-04-03T23:04:19.479Z,10.90
2019-04-03T23:06:50.203Z,10.90
2019-04-03T23:09:18.821Z,11.00
2019-04-03T23:11:48.462Z,10.90
2019-04-03T23:14:17.272Z,10.90
2019-04-03T23:16:46.004Z,10.90
2019-04-03T23:19:17.596Z,10.90
2019-04-03T23:21:45.240Z,10.90
2019-04-03T23:24:15.857Z,10.80
2019-04-03T23:26:44.741Z,10.70
2019-04-03T23:29:13.255Z,10.70
2019-04-03T23:31:44.556Z,10.70
2019-04-03T23:34:12.714Z,10.60
2019-04-03T23:36:41.385Z,10.60
2019-04-03T23:39:09.946Z,10.50
2019-04-03T23:41:38.857Z,10.50
2019-04-03T23:44:10.604Z,10.50
2019-04-03T23:46:38.163Z,10.40
2019-04-03T23:49:06.856Z,10.40
2019-04-03T23:51:35.761Z,10.30
2019-04-03T23:54:04.239Z,10.30
2019-04-03T23:56:32.681Z,10.30
2019-04-03T23:59:03.298Z,10.30
